aviador You're here:

CYDL Decoded Metar

DEASE LAKE in BC, CANADA
Report Time2017-10-19 21:27:00
UTC Time2017-10-19 21:54:47
Flight Rules mvfr MVFR
WindVRB at 04 kt
Visibility9999 m
Phenomena:N/A
Clouds:Few 007 Hf
Overcast 014 Hf
Expected CloudBase > 800 ft AGL from Temp-Dew spread
Ceiling1,400 ft
Temp01°C (ISA -9)
Dew Point-1°C (87% RH)
AAT-2.6°C
QNH981 hPa
Density Alt2,815 ft
Elevation2,677 ft
Report Wrong Elevation
Raw Report
SPECI CYDL 192127Z AUTO VRB04KT 9SM FEW007 OVC014 01/M01 A2897 RMK
SLP830=

Extra information for CYDL:More info

Metar Taf Metar & Taf Last 4 Metars F.Rules Stats Wind Profile Meteogram Temp Stats Airport Information Weather charts Add Link Nearby VenuesMetar ALERT Operation Metar Decoded Social comments